AirNav   Bose A20 Aviation Headset
 
 1188 users online  

OR74 Winkle Bar Airport
Grants Pass, Oregon, USA

GOING TO GRANTS PASS?


FAA INFORMATION EFFECTIVE 11 OCTOBER 2018

Location

FAA Identifier: OR74
Lat/Long: 42-42-05.4030N / 123-48-18.2910W
42-42.090050N / 123-48.304850W
42.7015008 / -123.8050808
(estimated)
Elevation: 450 ft. / 137 m (estimated)
Variation: 18E (1985)
From city: 26 miles NW of GRANTS PASS, OR
Time zone: UTC -7 (UTC -8 during Standard Time)
Zip code: 97406

Airport Operations

Airport use: Private use. Permission required prior to landing
Activation date: 02/1970
Control tower: no
ARTCC: SEATTLE CENTER
FSS: MC MINNVILLE FLIGHT SERVICE STATION
Attendance: UNATNDD
Wind indicator: no
Segmented circle: no

Nearby radio navigation aids

VOR radial/distance  VOR name  Freq  Var
RBGr195/35.0ROSEBURG VOR/DME108.2020E

 
NDB name  Hdg/Dist  Freq  Var  ID
ROSEBURG192/37.640020ERBG .-. -... --.

Airport Services

Airframe service: NONE
Powerplant service: NONE

Runway Information

Runway NE/SW

Dimensions: 900 x 30 ft. / 274 x 9 m
Surface: turf
RUNWAY NE  RUNWAY SW
Traffic pattern: leftright

Airport Ownership and Management from official FAA records

Ownership: Privately-owned
Owner: WALTER A HAAS JR
Manager: PACIFIC FLIGHTS INC
3650 BIDDLE RD
MEDFORD, OR 97504

Additional Remarks

LOW APCH AROUND BENDS IN RIVER.
PVT ARPT UNSAFE FOR GENERAL USE DUE TO TYPE OF TERRAIN & AIR CURRENTS.
CAUTION--ARPT HAZARDOUS

Instrument Procedures

There are no published instrument procedures at OR74.

Some nearby airports with instrument procedures:

3S8 - Grants Pass Airport (22 nm SE)
KRBG - Roseburg Regional Airport (38 nm NE)
KMFR - Rogue Valley International - Medford Airport (46 nm SE)
KOTH - Southwest Oregon Regional Airport (47 nm NW)
KCEC - Jack Mc Namara Field Airport (59 nm S)
 
Loc | Ops | Rwys | IFR | FBO | Links
Com | Nav | Svcs | Stats | Notes


 
Area around OR74 (Winkle Bar Airport)
 
Road maps at: MapQuest Bing Google
 
Aerial photo
WARNING: Photo may not be current or correct
Aerial photo of OR74 (Winkle Bar Airport)
Do you have a better or more recent aerial photo of Winkle Bar Airport that you would like to share? If so, please send us your photo.

 
Sectional chart

 
Airport distance calculator
Flying to Winkle Bar Airport? Find the distance to fly.

From to OR74

Sunrise and sunset
Times for 16-Oct-2018
 Local
(UTC-7)
 Zulu
(UTC)
Morning civil twilight07:0214:02
Sunrise07:3114:31
Sunset18:3101:31
Evening civil twilight18:5901:59

Current date and time
Zulu (UTC)  16-Oct-2018 13:14:24
Local (UTC-7)  16-Oct-2018 06:14:24
 
METAR
KSXT 
20nm E 
161256Z AUTO 11011G19KT 10SM CLR 13/M12 A3028 RMK AO2 SLP218 T01331122
K3S8 
22nm SE 
161255Z AUTO 00000KT 10SM -RA CLR 01/M05 A3028 RMK AO2
3S8 
22nm SE 
SuperAWOS
161155Z AUTO 00000KT 10SM 02/M03 A3027
3S4 
36nm S 
SuperAWOS
161155Z AUTO 00000KT 10SM M01/M06 A3023
KRBG 
38nm NE 
161253Z AUTO 00000KT 10SM CLR 04/00 A3024 RMK AO2 SLP240 T00390000
TAF
KRBG 
38nm NE 
161120Z 1612/1712 VRB03KT P6SM SKC
KMFR 
46nm SE 
161120Z 1612/1712 VRB03KT P6SM SKC
NOTAMs
Click for the latest NOTAMs
NOTAMs are issued by the DoD/FAA and will open in a separate window not controlled by AirNav.

 

 
 

Would you like to see your business listed on this page?

 If your business provides an interesting product or service to pilots, flight crews, aircraft, or users of the Winkle Bar Airport, you should consider listing it here.  To start the listing process, click on the button below
 
Add a business
 

Other Pages about Winkle Bar Airport

Update a link
 
Copyright © AirNav, LLC. All rights reserved. Privacy Policy  Contact